createdAt,value
2022-10-13T00:00:11.541Z,10.46
2022-10-13T00:05:13.023Z,10.47
2022-10-13T00:10:14.508Z,10.45
2022-10-13T00:15:16.260Z,10.40
2022-10-13T00:20:17.831Z,10.23
2022-10-13T00:25:19.348Z,10.16
2022-10-13T00:30:21.226Z,10.16
2022-10-13T00:35:22.640Z,10.11
2022-10-13T00:40:24.372Z,10.05
2022-10-13T00:45:29.476Z,9.99
2022-10-13T00:50:39.556Z,9.95
2022-10-13T00:55:43.476Z,9.90
2022-10-13T01:00:50.210Z,9.89
2022-10-13T01:05:53.664Z,9.89
2022-10-13T01:11:28.908Z,9.92
2022-10-13T01:16:40.882Z,10.04
2022-10-13T01:21:53.265Z,10.13
2022-10-13T01:27:19.296Z,10.25
2022-10-13T01:32:31.761Z,10.40
2022-10-13T01:37:44.677Z,10.59
2022-10-13T01:43:09.539Z,10.76
2022-10-13T01:48:11.232Z,10.92
2022-10-13T01:53:14.576Z,10.99
2022-10-13T01:58:16.026Z,11.08
2022-10-13T02:03:29.764Z,11.26
2022-10-13T02:08:38.207Z,11.43
2022-10-13T02:13:46.075Z,11.52
2022-10-13T02:18:48.022Z,11.60
2022-10-13T02:23:49.641Z,11.64
2022-10-13T02:28:51.620Z,11.69
2022-10-13T02:33:53.157Z,11.71
2022-10-13T02:38:54.634Z,11.81
2022-10-13T02:43:56.999Z,11.82
2022-10-13T02:48:58.803Z,11.82
2022-10-13T02:54:00.236Z,11.86
2022-10-13T02:59:01.719Z,11.87
2022-10-13T03:04:03.149Z,11.88
2022-10-13T03:09:04.825Z,11.89
2022-10-13T03:14:06.322Z,11.90
2022-10-13T03:19:07.819Z,11.87
2022-10-13T03:24:09.320Z,11.81
2022-10-13T03:29:15.649Z,11.82
2022-10-13T03:34:17.903Z,11.87
2022-10-13T03:39:19.365Z,11.86
2022-10-13T03:44:20.932Z,11.77
2022-10-13T03:49:22.370Z,11.72
2022-10-13T03:54:24.709Z,11.69
2022-10-13T03:59:26.139Z,11.71
2022-10-13T04:04:27.898Z,11.83
2022-10-13T04:09:29.358Z,11.94
2022-10-13T04:14:30.934Z,12.06
2022-10-13T04:19:32.402Z,12.14
2022-10-13T04:24:33.917Z,12.05
2022-10-13T04:29:35.366Z,11.79
2022-10-13T04:34:36.921Z,11.58
2022-10-13T04:39:38.424Z,11.52
2022-10-13T04:44:39.845Z,11.48
2022-10-13T04:49:41.276Z,11.46
2022-10-13T04:54:43.195Z,11.44
2022-10-13T04:59:44.624Z,11.40
2022-10-13T05:04:46.221Z,11.38
2022-10-13T05:09:47.799Z,11.37
2022-10-13T05:14:52.290Z,11.25
2022-10-13T05:19:54.144Z,11.13
2022-10-13T05:24:55.577Z,11.04
2022-10-13T05:29:57.091Z,10.90
2022-10-13T05:34:58.632Z,10.85
2022-10-13T05:40:00.175Z,10.90
2022-10-13T05:45:01.738Z,11.04
2022-10-13T05:50:03.658Z,11.13
2022-10-13T05:55:09.259Z,11.28
2022-10-13T06:00:14.160Z,11.38
2022-10-13T06:05:18.349Z,11.52
2022-10-13T06:10:19.973Z,11.61
2022-10-13T06:15:25.678Z,11.71
2022-10-13T06:20:30.649Z,11.88
2022-10-13T06:25:32.627Z,11.93
2022-10-13T06:30:34.088Z,11.98
2022-10-13T06:35:36.473Z,12.10
2022-10-13T06:40:38.491Z,12.23
2022-10-13T06:45:40.090Z,12.34
2022-10-13T06:50:43.031Z,12.47
2022-10-13T06:55:47.044Z,12.50
2022-10-13T07:00:50.603Z,12.52
2022-10-13T07:05:52.199Z,12.65
2022-10-13T07:10:53.655Z,12.73
2022-10-13T07:15:55.185Z,12.92
2022-10-13T07:20:58.875Z,13.39
2022-10-13T07:26:01.722Z,13.83
2022-10-13T07:31:11.908Z,14.29
2022-10-13T07:36:14.058Z,14.65
2022-10-13T07:41:16.156Z,14.96
2022-10-13T07:46:17.635Z,15.25
2022-10-13T07:51:19.705Z,15.46
2022-10-13T07:56:21.204Z,15.37
2022-10-13T08:01:22.710Z,15.23
2022-10-13T08:06:24.218Z,15.27
2022-10-13T08:11:26.138Z,15.33
2022-10-13T08:16:28.857Z,15.57
2022-10-13T08:21:56.889Z,15.65
2022-10-13T08:26:51.945Z,15.64
2022-10-13T08:31:54.278Z,15.66
2022-10-13T08:36:56.743Z,15.71
2022-10-13T08:41:58.604Z,16.17
2022-10-13T08:47:12.430Z,16.78
2022-10-13T08:52:22.633Z,17.20
2022-10-13T08:57:24.437Z,17.26
2022-10-13T09:02:31.344Z,17.11
2022-10-13T09:07:36.367Z,16.82
2022-10-13T09:12:38.173Z,16.65
2022-10-13T09:17:41.698Z,16.62
2022-10-13T09:22:43.840Z,16.54
2022-10-13T09:27:58.692Z,16.43
2022-10-13T09:33:23.280Z,16.47
2022-10-13T09:38:26.497Z,16.32
2022-10-13T09:43:30.006Z,16.37
2022-10-13T09:48:36.566Z,16.08
2022-10-13T09:53:40.642Z,15.88
2022-10-13T09:59:07.129Z,16.04
2022-10-13T10:04:16.240Z,16.91
2022-10-13T10:09:44.025Z,17.52
2022-10-13T10:14:45.765Z,17.89
2022-10-13T10:20:03.814Z,18.09
2022-10-13T10:25:36.187Z,18.40
2022-10-13T10:30:47.811Z,19.13
2022-10-13T10:35:57.428Z,19.39
2022-10-13T10:41:07.498Z,19.20
2022-10-13T10:46:22.570Z,18.89
2022-10-13T10:51:29.673Z,18.48
2022-10-13T10:56:37.417Z,18.42
2022-10-13T11:02:03.148Z,18.64
2022-10-13T11:07:05.168Z,18.52
2022-10-13T11:12:22.192Z,18.57
2022-10-13T11:17:32.407Z,18.56
2022-10-13T11:22:33.880Z,18.69
2022-10-13T11:27:35.327Z,18.85
2022-10-13T11:32:36.846Z,19.12
2022-10-13T11:38:07.700Z,19.22
2022-10-13T11:43:22.579Z,19.42
2022-10-13T11:49:02.000Z,19.74
2022-10-13T11:54:35.256Z,19.94
2022-10-13T11:59:39.970Z,19.78
2022-10-13T12:04:46.331Z,19.77
2022-10-13T12:09:53.875Z,19.76
2022-10-13T12:14:59.787Z,19.81
2022-10-13T12:20:21.630Z,19.62
2022-10-13T12:25:26.665Z,19.48
2022-10-13T12:30:37.210Z,19.33
2022-10-13T12:35:38.743Z,19.22
2022-10-13T12:40:40.340Z,18.84
2022-10-13T12:45:44.941Z,18.53
2022-10-13T12:50:46.654Z,18.45
2022-10-13T12:55:53.466Z,18.63
2022-10-13T13:01:13.178Z,18.51
2022-10-13T13:06:14.632Z,18.54
2022-10-13T13:11:33.443Z,18.50
2022-10-13T13:16:34.898Z,18.48
2022-10-13T13:21:36.347Z,18.57
2022-10-13T13:26:37.840Z,18.68
2022-10-13T13:31:39.272Z,18.57
2022-10-13T13:36:41.648Z,18.63
2022-10-13T13:41:43.097Z,18.62
2022-10-13T13:46:44.560Z,18.53
2022-10-13T13:51:46.056Z,18.43
2022-10-13T13:56:47.489Z,18.45
2022-10-13T14:01:49.000Z,18.40
2022-10-13T14:06:51.898Z,18.40
2022-10-13T14:11:53.315Z,18.33
2022-10-13T14:16:54.847Z,18.39
2022-10-13T14:21:56.359Z,18.43
2022-10-13T14:26:58.071Z,18.39
2022-10-13T14:31:59.533Z,18.24
2022-10-13T14:37:01.006Z,18.21
2022-10-13T14:42:02.519Z,18.21
2022-10-13T14:47:03.988Z,18.15
2022-10-13T14:52:05.544Z,18.09
2022-10-13T14:57:08.287Z,18.05
2022-10-13T15:02:11.203Z,18.05
2022-10-13T15:07:12.725Z,18.05
2022-10-13T15:12:14.219Z,18.08
2022-10-13T15:17:15.714Z,18.11
2022-10-13T15:22:17.170Z,18.17
2022-10-13T15:27:18.734Z,18.20
2022-10-13T15:32:21.013Z,18.19
2022-10-13T15:37:22.896Z,18.20
2022-10-13T15:42:24.597Z,18.18
2022-10-13T15:47:26.088Z,18.11
2022-10-13T15:52:32.219Z,18.04
2022-10-13T15:57:36.203Z,17.98
2022-10-13T16:02:37.762Z,17.90
2022-10-13T16:07:40.677Z,17.81
2022-10-13T16:12:49.221Z,17.79
2022-10-13T16:17:54.809Z,17.71
2022-10-13T16:22:56.254Z,17.64
2022-10-13T16:27:59.269Z,17.53
2022-10-13T16:33:00.712Z,17.42
2022-10-13T16:38:02.177Z,17.34
2022-10-13T16:43:03.616Z,17.18
2022-10-13T16:48:05.231Z,17.08
2022-10-13T16:53:06.734Z,17.01
2022-10-13T16:58:08.543Z,16.91
2022-10-13T17:03:10.405Z,16.83
2022-10-13T17:08:11.822Z,16.82
2022-10-13T17:13:13.267Z,16.86
2022-10-13T17:18:14.823Z,16.90
2022-10-13T17:23:17.112Z,16.88
2022-10-13T17:28:19.347Z,16.87
2022-10-13T17:33:20.840Z,16.85
2022-10-13T17:38:23.013Z,16.78
2022-10-13T17:43:24.473Z,16.71
2022-10-13T17:48:25.896Z,16.61
2022-10-13T17:53:27.331Z,16.47
2022-10-13T17:58:29.575Z,16.34
2022-10-13T18:03:31.218Z,16.29
2022-10-13T18:08:32.894Z,16.24
2022-10-13T18:13:35.324Z,16.15
2022-10-13T18:18:38.008Z,16.02
2022-10-13T18:23:40.553Z,15.90
2022-10-13T18:28:45.877Z,15.82
2022-10-13T18:33:47.681Z,15.77
2022-10-13T18:38:50.250Z,15.77
2022-10-13T18:43:51.905Z,15.74
2022-10-13T18:48:53.426Z,15.70
2022-10-13T18:53:54.942Z,15.65
2022-10-13T18:58:59.714Z,15.60
2022-10-13T19:04:01.768Z,15.57
2022-10-13T19:09:09.145Z,15.55
2022-10-13T19:14:12.682Z,15.56
2022-10-13T19:19:14.602Z,15.54
2022-10-13T19:24:16.081Z,15.47
2022-10-13T19:29:17.550Z,15.41
2022-10-13T19:34:19.105Z,15.39
2022-10-13T19:39:23.790Z,15.37
2022-10-13T19:44:25.780Z,15.35
2022-10-13T19:49:27.287Z,15.34
2022-10-13T19:54:33.623Z,15.36
2022-10-13T19:59:36.383Z,15.35
2022-10-13T20:04:37.821Z,15.39
2022-10-13T20:09:39.315Z,15.42
2022-10-13T20:14:40.919Z,15.39
2022-10-13T20:19:43.337Z,15.30
2022-10-13T20:24:44.779Z,15.19
2022-10-13T20:29:46.720Z,15.09
2022-10-13T20:34:48.190Z,15.07
2022-10-13T20:39:49.688Z,15.09
2022-10-13T20:44:51.230Z,15.11
2022-10-13T20:49:53.289Z,15.05
2022-10-13T20:54:54.795Z,14.96
2022-10-13T20:59:56.204Z,14.93
2022-10-13T21:04:57.741Z,14.95
2022-10-13T21:09:59.175Z,14.98
2022-10-13T21:15:00.620Z,14.96
2022-10-13T21:20:02.130Z,14.95
2022-10-13T21:25:03.832Z,14.95
2022-10-13T21:30:06.603Z,14.92
2022-10-13T21:35:08.718Z,14.87
2022-10-13T21:40:10.324Z,14.79
2022-10-13T21:45:11.800Z,14.79
2022-10-13T21:50:13.313Z,14.79
2022-10-13T21:55:14.881Z,14.74
2022-10-13T22:00:16.682Z,14.66
2022-10-13T22:05:18.262Z,14.64
2022-10-13T22:10:19.905Z,14.61
2022-10-13T22:15:21.331Z,14.55
2022-10-13T22:20:22.738Z,14.51
2022-10-13T22:25:24.229Z,14.51
2022-10-13T22:30:25.693Z,14.52
2022-10-13T22:35:27.171Z,14.54
2022-10-13T22:40:29.127Z,14.54
2022-10-13T22:45:30.593Z,14.53
2022-10-13T22:50:34.107Z,14.48
2022-10-13T22:55:39.821Z,14.48
2022-10-13T23:00:44.364Z,14.48
2022-10-13T23:05:49.079Z,14.56
2022-10-13T23:10:50.732Z,14.65
2022-10-13T23:15:52.181Z,14.68
2022-10-13T23:20:56.841Z,14.69
2022-10-13T23:26:07.492Z,14.65
2022-10-13T23:31:14.846Z,14.56
2022-10-13T23:36:19.695Z,14.57
2022-10-13T23:41:21.214Z,14.57
2022-10-13T23:46:22.788Z,14.63
2022-10-13T23:51:25.914Z,14.68
2022-10-13T23:56:27.626Z,14.69
